Terminal Aerodrome Forecast
Issued by NWS Sioux Falls, SD

Home | Current Version | Previous Version | Graphics & Text | Print | Product List | Glossary On
Versions: 1 2 3 4 5 6 7 8 9 10 11 12 13 14 15 16 17
716
FTUS43 KFSD 100530
TAFHON
TAF
KHON 100530Z 1006/1106 14007KT P6SM OVC080
     FM100900 13008KT 4SM -SN OVC025
      TEMPO 1011/1014 2SM -SN OVC015
     FM101800 11007KT P6SM OVC015
     FM110100 07005KT P6SM OVC015=

USA.gov is the U.S. government's official web portal to all federal, state and local government web resources and services.